ADDS TAF Board INFO
 
 

IDs: Format: Expanded Condensed

KJFK - New York/Kennedy Int, NY, US

Issued at 1432 UTC 25 Jul 2014
Time1551Z25/16Z25/17Z25/18Z25/19Z25/20Z25/21Z25/22Z25/23Z26/00Z26/01Z26/02Z26/03Z26/04Z
TypeOBSPRVLPRVLPRVLPRVLPRVLPRVLPRVLPRVLPRVLPRVLPRVLPRVLPRVL
Vis10>6>6>6>6>6>6>6>6>6>6>6>6>6
Cig----------------------------
CoverFEWSKCFEWFEWFEWFEWFEWFEWFEWFEWFEWFEWFEWFEW
FltCat--VFRVFRVFRVFRVFRVFRVFRVFRVFRVFRVFRVFRVFR
Wx----------------------------
WDirVRB10190190190190190190190190190190220220
WSpd391111111111111111111188
WGst----------------------------
R04/22
XWndVRB3-4-4-4-4-4-4-4-4-4-411
HWndVRB8-10-10-10-10-10-10-10-10-10-10-8-8
R13/31
XWndVRB8-10-10-10-10-10-10-10-10-10-10-8-8
HWndVRB-34444444444-1-1
Raw TAF
KJFK 251432Z 2515/2618 01009KT P6SM SKC
  FM251700 19011KT P6SM FEW050
  FM260300 22008KT P6SM FEW250
  FM261500 20012KT P6SM FEW050 SCT250


Raw METAR
KJFK 251551Z VRB03KT 10SM FEW075 27/11 A3002 RMK AO2 SLP166 T02670111

TAF Board Legend

Hazard Green Yellow Red Magenta
Visibility (sm) >5 >2.99 >0.99 <=0.99
Ceiling (100 ft) >30 >9.99 >4.99 <=4.99
Wind Speed (kt) <10 <20 <30 >=30
Wind Gust (kt) <10 <20 <30 >=30
Weather No Wx Reported Light precipitation Moderate precipitation Heavy precipitation
Flight Category VFR MVFR IFR LIFR

Page loaded:  15:57 UTC  |   08:57 AM Pacific  |   09:57 AM Mountain  |   10:57 AM Central  |   11:57 AM Eastern

 

ADVISORIES

FORECASTS

FORECASTS

OBSERVATIONS

USER TOOLS

ABOUT US